Time;durP1;ratioP1;P1;durP2;ratioP2;P2;SDS_P1;SDS_P2;PMS_P1;PMS_P2;Temp;Humidity;BMP_temperature;BMP_pressure;BME280_temperature;BME280_humidity;BME280_pressure;Samples;Min_cycle;Max_cycle;Signal;HPM_P1;HPM_P2
2022/09/19 00:01:47;;;;;;;8.63;8.33;;;;;;;6.81;87.48;92867.78;5062967;28;20216;-70
2022/09/19 00:04:22;;;;;;;9.03;8.73;;;;;;;6.63;88.68;92865.56;5072272;28;20225;-71
2022/09/19 00:06:49;;;;;;;9.80;9.43;;;;;;;6.90;87.10;92863.69;5068545;28;20177;-70
2022/09/19 00:09:18;;;;;;;9.63;9.23;;;;;;;6.79;85.88;92841.28;5071797;28;20302;-71
2022/09/19 00:11:46;;;;;;;9.30;9.00;;;;;;;6.89;86.27;92859.53;5068171;28;20184;-71
2022/09/19 00:14:14;;;;;;;9.77;9.37;;;;;;;6.90;85.79;92855.09;5071600;28;20233;-71
2022/09/19 00:16:47;;;;;;;9.20;8.90;;;;;;;6.89;85.78;92851.75;5072513;28;20174;-71
2022/09/19 00:19:18;;;;;;;9.53;9.13;;;;;;;6.83;87.06;92849.38;5069665;28;20240;-71
2022/09/19 00:21:45;;;;;;;8.97;8.37;;;;;;;6.80;86.79;92844.69;5064090;28;20232;-71
2022/09/19 00:26:58;;;;;;;9.47;9.17;;;;;;;6.56;88.22;92833.88;5067973;28;20212;-71
2022/09/19 00:29:24;;;;;;;9.00;8.70;;;;;;;6.60;89.95;92845.28;5069969;28;20281;-71
2022/09/19 00:31:51;;;;;;;9.37;9.07;;;;;;;6.71;89.02;92841.75;5072062;28;20253;-70
2022/09/19 00:34:17;;;;;;;9.50;9.20;;;;;;;6.63;88.69;92834.41;5071244;28;20228;-71
2022/09/19 00:36:44;;;;;;;9.00;8.60;;;;;;;6.98;88.10;92837.28;5071453;28;20185;-70
2022/09/19 00:39:11;;;;;;;9.97;9.57;;;;;;;6.84;87.58;92836.13;5060579;28;20221;-71
2022/09/19 00:41:37;;;;;;;9.43;9.03;;;;;;;6.54;88.23;92821.16;5056374;28;20755;-71
2022/09/19 00:44:21;;;;;;;9.00;8.70;;;;;;;6.70;89.40;92847.19;5070951;28;20237;-71
2022/09/19 00:46:49;;;;;;;8.90;8.60;;;;;;;6.69;88.33;92843.03;5070643;28;20193;-71
2022/09/19 00:49:18;;;;;;;9.37;8.97;;;;;;;6.73;88.70;92846.69;5071245;28;20221;-72
2022/09/19 00:51:50;;;;;;;9.77;9.47;;;;;;;6.60;89.45;92845.28;5070536;28;20568;-71
2022/09/19 00:54:20;;;;;;;9.77;9.37;;;;;;;6.62;88.76;92843.25;5071346;28;20249;-71
2022/09/19 00:56:49;;;;;;;9.00;8.60;;;;;;;6.59;88.91;92846.34;5071457;28;20215;-71
2022/09/19 00:59:14;;;;;;;9.03;8.73;;;;;;;6.40;88.89;92806.25;5070319;28;20241;-71
2022/09/19 01:01:42;;;;;;;9.70;9.40;;;;;;;6.54;89.06;92843.69;5067272;28;20217;-72
2022/09/19 01:04:16;;;;;;;9.97;9.57;;;;;;;6.49;88.75;92854.81;5063330;28;20296;-70
2022/09/19 01:07:13;;;;;;;9.03;8.73;;;;;;;6.36;89.51;92844.09;5069706;28;20176;-71
2022/09/19 01:10:02;;;;;;;8.77;8.47;;;;;;;6.35;90.09;92845.13;5065820;28;20252;-70
2022/09/19 01:12:44;;;;;;;9.63;8.97;;;;;;;6.29;90.23;92835.72;5069895;28;20253;-72
2022/09/19 01:15:30;;;;;;;9.00;8.70;;;;;;;6.38;89.48;92840.19;5061186;28;20217;-70
2022/09/19 01:17:59;;;;;;;9.77;9.47;;;;;;;6.30;89.55;92845.06;5103274;28;20265;-71
2022/09/19 01:20:50;;;;;;;9.73;9.37;;;;;;;6.28;90.45;92847.91;5070742;28;20217;-71
2022/09/19 01:23:45;;;;;;;9.73;9.43;;;;;;;6.27;89.93;92846.31;5070814;28;20239;-71
2022/09/19 01:26:49;;;;;;;8.67;8.37;;;;;;;6.08;90.80;92841.75;5102437;28;20234;-70
2022/09/19 01:29:18;;;;;;;9.90;9.50;;;;;;;6.16;89.99;92833.53;4979024;28;20225;-70
2022/09/19 01:31:48;;;;;;;9.77;9.37;;;;;;;6.22;89.20;92837.75;5076126;28;20192;-71
2022/09/19 01:34:30;;;;;;;9.97;9.57;;;;;;;6.22;88.96;92828.16;5082221;28;20267;-71
2022/09/19 01:37:05;;;;;;;9.07;8.77;;;;;;;6.30;88.95;92834.69;5071180;28;20274;-70
2022/09/19 01:39:34;;;;;;;9.80;9.40;;;;;;;6.08;90.70;92832.19;5079587;28;20240;-71
2022/09/19 01:42:01;;;;;;;8.60;8.30;;;;;;;6.39;90.08;92828.03;5054929;28;20245;-71
2022/09/19 01:44:28;;;;;;;9.83;9.43;;;;;;;6.02;90.52;92827.19;5070594;28;20217;-71
2022/09/19 01:47:15;;;;;;;9.77;9.37;;;;;;;6.08;89.70;92813.25;5082739;28;20203;-71
2022/09/19 01:50:13;;;;;;;9.80;9.50;;;;;;;6.04;89.22;92818.13;5069022;28;20248;-71
2022/09/19 01:52:59;;;;;;;8.83;8.53;;;;;;;6.09;89.09;92823.38;5051793;28;20211;-71
2022/09/19 01:55:43;;;;;;;9.30;9.00;;;;;;;6.01;89.61;92815.25;5103525;28;20219;-71
2022/09/19 01:58:40;;;;;;;8.80;8.50;;;;;;;6.02;89.80;92815.00;5093393;28;20192;-70
2022/09/19 02:01:24;;;;;;;10.00;9.47;;;;;;;5.89;89.76;92801.66;5078852;28;20292;-71
2022/09/19 02:04:09;;;;;;;9.77;9.40;;;;;;;5.97;89.46;92814.19;5067694;28;20185;-71
2022/09/19 02:06:46;;;;;;;9.77;9.37;;;;;;;5.89;90.72;92817.22;5081256;28;20187;-71
2022/09/19 02:09:29;;;;;;;11.13;10.43;;;;;;;5.80;90.05;92803.91;5078910;28;20228;-71
2022/09/19 02:11:59;;;;;;;9.40;9.10;;;;;;;5.91;90.65;92820.34;5074167;28;20185;-71
2022/09/19 02:14:28;;;;;;;9.30;8.87;;;;;;;5.84;90.24;92819.75;5088427;28;20987;-71
2022/09/19 02:17:06;;;;;;;9.20;8.87;;;;;;;5.83;90.42;92823.38;5080289;28;20189;-71
2022/09/19 02:19:39;;;;;;;9.27;8.97;;;;;;;5.81;89.16;92820.22;5078154;28;20320;-71
2022/09/19 02:22:23;;;;;;;9.23;8.93;;;;;;;5.63;89.99;92789.47;5090189;28;20192;-71
2022/09/19 02:24:55;;;;;;;9.73;9.17;;;;;;;5.84;90.17;92809.38;5078555;28;20278;-71
2022/09/19 02:27:25;;;;;;;9.07;8.77;;;;;;;5.71;90.68;92792.38;5076491;28;20190;-71
2022/09/19 02:29:58;;;;;;;9.73;9.33;;;;;;;5.80;89.70;92797.94;5089828;28;20312;-70
2022/09/19 02:32:24;;;;;;;9.60;9.30;;;;;;;5.86;89.62;92808.13;5090001;28;20194;-71
2022/09/19 02:34:53;;;;;;;9.57;9.17;;;;;;;5.78;89.50;92779.25;5071697;28;20223;-71
2022/09/19 02:37:54;;;;;;;9.70;9.37;;;;;;;5.69;91.23;92799.66;5085623;28;20164;-70
2022/09/19 02:40:36;;;;;;;10.23;9.83;;;;;;;5.51;92.04;92787.00;5088850;28;20227;-71
2022/09/19 02:43:20;;;;;;;8.90;8.60;;;;;;;5.76;91.49;92781.31;5089468;28;20319;-69
2022/09/19 02:45:54;;;;;;;9.50;9.20;;;;;;;5.61;91.13;92797.47;5102719;28;20228;-71
2022/09/19 02:48:20;;;;;;;10.77;10.27;;;;;;;5.69;91.12;92796.25;5075907;28;20189;-71
2022/09/19 02:50:59;;;;;;;10.47;9.90;;;;;;;5.57;91.27;92783.44;5089291;28;20262;-71
2022/09/19 02:53:29;;;;;;;10.43;9.93;;;;;;;5.63;91.13;92803.22;5084359;28;20206;-71
2022/09/19 02:56:00;;;;;;;9.83;9.23;;;;;;;5.67;90.98;92800.91;5080982;28;20248;-71
2022/09/19 02:58:30;;;;;;;9.70;9.30;;;;;;;5.57;91.02;92808.56;5089694;28;20177;-69
2022/09/19 03:01:05;;;;;;;8.90;8.57;;;;;;;5.61;91.29;92799.28;5089183;28;20856;-71
2022/09/19 03:06:21;;;;;;;10.03;9.70;;;;;;;5.63;89.79;92808.38;5093897;28;20208;-70
2022/09/19 03:08:50;;;;;;;9.40;9.10;;;;;;;5.42;90.97;92785.09;5107705;28;20250;-70
2022/09/19 03:11:19;;;;;;;10.67;9.53;;;;;;;5.47;91.01;92798.09;5102966;28;20200;-71
2022/09/19 03:13:45;;;;;;;10.27;9.67;;;;;;;5.48;91.86;92797.09;5080980;28;20198;-70
2022/09/19 03:16:19;;;;;;;10.13;9.53;;;;;;;5.67;90.50;92798.31;5093956;28;20255;-71
2022/09/19 03:18:46;;;;;;;10.47;9.97;;;;;;;5.50;91.68;92808.75;5107071;28;20184;-71
2022/09/19 03:21:13;;;;;;;9.23;8.93;;;;;;;5.57;90.59;92813.75;5089737;28;20195;-71
2022/09/19 03:23:42;;;;;;;9.73;9.33;;;;;;;5.54;90.36;92809.81;5089306;28;20208;-71
2022/09/19 03:26:12;;;;;;;9.60;9.20;;;;;;;5.39;90.88;92811.47;5099807;28;20719;-70
2022/09/19 03:28:38;;;;;;;8.60;8.30;;;;;;;5.43;91.41;92805.56;5089744;28;20234;-71
2022/09/19 03:31:05;;;;;;;9.77;9.37;;;;;;;5.62;89.50;92808.63;5071689;28;20224;-70
2022/09/19 03:33:30;;;;;;;8.97;8.67;;;;;;;5.45;90.24;92808.69;5072520;28;20186;-71
2022/09/19 03:36:02;;;;;;;9.77;9.37;;;;;;;5.46;90.25;92801.72;5069675;28;20224;-71
2022/09/19 03:38:30;;;;;;;8.93;8.57;;;;;;;5.37;91.41;92803.19;5072157;28;20237;-71
2022/09/19 03:40:55;;;;;;;9.90;9.50;;;;;;;5.41;90.80;92793.88;5061643;28;20229;-71
2022/09/19 03:43:21;;;;;;;10.27;9.77;;;;;;;5.34;91.54;92788.13;5071609;28;20225;-71
2022/09/19 03:45:46;;;;;;;9.27;8.97;;;;;;;5.37;92.12;92798.00;5068494;28;20218;-71
2022/09/19 03:48:12;;;;;;;10.40;10.00;;;;;;;5.30;92.52;92792.22;5065605;28;20190;-72
2022/09/19 03:50:37;;;;;;;8.93;8.43;;;;;;;5.24;92.12;92756.94;5071797;28;20225;-70
2022/09/19 03:53:03;;;;;;;9.37;8.97;;;;;;;5.42;91.90;92787.69;5072803;28;20182;-70
2022/09/19 03:55:28;;;;;;;8.87;8.57;;;;;;;5.41;91.77;92779.16;5072459;28;20225;-70
2022/09/19 03:57:53;;;;;;;9.70;9.13;;;;;;;5.31;91.71;92767.91;5072266;28;20196;-70
2022/09/19 04:00:19;;;;;;;9.10;8.80;;;;;;;5.15;92.75;92766.16;5071917;28;20209;-71
2022/09/19 04:02:44;;;;;;;8.93;8.63;;;;;;;5.24;92.19;92768.09;5070998;28;20209;-69
2022/09/19 04:05:12;;;;;;;9.87;8.77;;;;;;;5.38;90.94;92774.47;5068226;28;20220;-68
2022/09/19 04:07:38;;;;;;;9.80;8.93;;;;;;;5.43;91.07;92771.91;5067796;28;20173;-72
2022/09/19 04:10:05;;;;;;;9.03;8.53;;;;;;;5.35;90.86;92774.16;5066513;28;20281;-69
2022/09/19 04:12:33;;;;;;;8.77;8.47;;;;;;;5.32;91.04;92772.84;5065199;28;20193;-70
2022/09/19 04:14:58;;;;;;;9.43;9.03;;;;;;;5.34;90.85;92775.19;5070071;28;20213;-70
2022/09/19 04:17:24;;;;;;;8.90;8.50;;;;;;;5.44;89.61;92772.69;5061173;28;20188;-70
2022/09/19 04:19:50;;;;;;;9.27;8.90;;;;;;;5.55;89.29;92772.56;5068578;28;20216;-70
2022/09/19 04:22:18;;;;;;;10.30;9.80;;;;;;;5.53;89.07;92779.78;5072220;28;20217;-69
2022/09/19 04:24:43;;;;;;;9.80;9.30;;;;;;;5.61;89.80;92778.56;5066737;28;20773;-69
2022/09/19 04:27:12;;;;;;;9.90;9.50;;;;;;;5.48;89.95;92771.19;5064226;28;20194;-68
2022/09/19 04:29:38;;;;;;;9.70;9.17;;;;;;;5.45;91.25;92766.50;5060004;28;20289;-70
2022/09/19 04:32:04;;;;;;;9.77;9.37;;;;;;;5.62;91.78;92767.97;5070733;28;20201;-69
2022/09/19 04:34:30;;;;;;;8.63;8.33;;;;;;;5.69;90.91;92778.13;5066090;28;20290;-70
2022/09/19 04:36:57;;;;;;;10.20;9.70;;;;;;;5.66;89.30;92776.81;5065121;28;20178;-70
2022/09/19 04:39:24;;;;;;;9.73;9.00;;;;;;;5.68;89.71;92779.16;5059847;28;20205;-69
2022/09/19 04:41:52;;;;;;;9.13;8.73;;;;;;;5.71;88.81;92765.72;5071511;28;20247;-70
2022/09/19 04:44:17;;;;;;;9.70;9.20;;;;;;;5.78;88.89;92779.25;5064198;28;20232;-70
2022/09/19 04:46:44;;;;;;;10.07;9.57;;;;;;;5.98;88.70;92789.81;5053815;28;20182;-70
2022/09/19 04:49:11;;;;;;;8.40;8.03;;;;;;;5.86;89.48;92769.28;5064939;28;20232;-68
2022/09/19 04:51:37;;;;;;;9.80;9.30;;;;;;;5.88;90.21;92769.03;5066332;28;20182;-71
2022/09/19 04:54:03;;;;;;;10.40;9.70;;;;;;;5.92;90.04;92775.25;5063308;28;20228;-71
2022/09/19 04:56:28;;;;;;;9.80;9.20;;;;;;;6.08;90.17;92764.00;5064326;28;20224;-69
2022/09/19 04:58:54;;;;;;;12.07;11.50;;;;;;;6.05;91.51;92756.72;5069425;28;20186;-70
2022/09/19 05:01:19;;;;;;;10.10;9.63;;;;;;;6.18;91.68;92759.69;5070900;28;20280;-70
2022/09/19 05:03:44;;;;;;;10.07;9.47;;;;;;;6.23;91.45;92761.53;5069561;28;20248;-71
2022/09/19 05:06:13;;;;;;;10.53;9.67;;;;;;;6.38;90.52;92754.66;5065801;28;20188;-71
2022/09/19 05:08:40;;;;;;;10.70;10.30;;;;;;;6.52;90.96;92773.16;5058172;28;20191;-72
2022/09/19 05:11:07;;;;;;;9.43;9.07;;;;;;;6.64;90.41;92771.16;5062036;28;20169;-71
2022/09/19 05:13:37;;;;;;;10.20;9.40;;;;;;;6.60;89.86;92758.94;5069524;28;20193;-72
2022/09/19 05:16:04;;;;;;;10.07;9.60;;;;;;;6.64;88.86;92758.19;5098390;28;20209;-73
2022/09/19 05:18:34;;;;;;;10.03;9.33;;;;;;;6.94;88.79;92779.09;5066372;28;20268;-71
2022/09/19 05:21:03;;;;;;;10.00;9.30;;;;;;;7.04;86.38;92745.41;5071549;28;20232;-71
2022/09/19 05:23:29;;;;;;;10.57;10.03;;;;;;;7.08;87.48;92769.06;5086584;28;20216;-71
2022/09/19 05:25:55;;;;;;;10.80;10.27;;;;;;;7.15;87.60;92767.78;5088324;28;20227;-71
2022/09/19 05:28:26;;;;;;;11.77;11.07;;;;;;;7.35;85.50;92780.84;5086245;28;20185;-73
2022/09/19 05:30:54;;;;;;;10.50;10.00;;;;;;;7.64;83.09;92789.75;5095117;28;20224;-73
2022/09/19 05:33:23;;;;;;;10.00;9.53;;;;;;;7.47;84.66;92773.63;5090776;28;20189;-73
2022/09/19 05:35:50;;;;;;;11.33;10.83;;;;;;;7.57;85.13;92791.84;5087305;28;20220;-73
2022/09/19 05:38:16;;;;;;;10.87;10.27;;;;;;;7.49;85.68;92783.75;5070896;28;20256;-73
2022/09/19 05:40:42;;;;;;;11.90;11.20;;;;;;;7.71;85.23;92781.72;5091925;28;20212;-75
2022/09/19 05:43:07;;;;;;;14.43;13.17;;;;;;;7.80;85.43;92782.78;5090747;28;20248;-72
2022/09/19 05:45:33;;;;;;;12.27;11.53;;;;;;;7.70;86.37;92796.56;5090920;28;20267;-72
2022/09/19 05:48:00;;;;;;;11.33;10.70;;;;;;;7.72;86.41;92797.06;5091734;28;20181;-72
2022/09/19 05:50:26;;;;;;;12.00;11.23;;;;;;;7.77;86.26;92799.69;5091027;28;20227;-72
2022/09/19 05:55:36;;;;;;;11.60;10.93;;;;;;;7.79;85.66;92789.81;5100327;28;20270;-70
2022/09/19 05:58:02;;;;;;;11.67;10.77;;;;;;;8.12;84.28;92793.78;5089908;28;20184;-72
2022/09/19 06:00:27;;;;;;;12.67;11.77;;;;;;;8.18;84.41;92796.13;5098593;28;20232;-73
2022/09/19 06:02:56;;;;;;;12.50;11.70;;;;;;;7.92;84.93;92785.94;5101242;28;20200;-71
2022/09/19 06:05:23;;;;;;;13.03;11.97;;;;;;;7.72;85.05;92786.69;5107690;28;20270;-72
2022/09/19 06:07:50;;;;;;;13.70;12.00;;;;;;;8.01;83.80;92787.78;5081044;28;20176;-69
2022/09/19 06:10:16;;;;;;;12.50;11.43;;;;;;;8.16;83.32;92787.78;5089256;28;20220;-70
2022/09/19 06:12:41;;;;;;;12.50;11.67;;;;;;;8.07;85.63;92781.56;5080197;28;20220;-73
2022/09/19 06:15:07;;;;;;;12.80;11.63;;;;;;;8.10;83.30;92798.44;5089004;28;20232;-72
2022/09/19 06:17:32;;;;;;;12.80;11.93;;;;;;;8.36;82.78;92786.28;5088807;28;20261;-71
2022/09/19 06:19:58;;;;;;;12.07;11.17;;;;;;;8.33;81.61;92781.59;5089058;28;20216;-71
2022/09/19 06:22:23;;;;;;;11.57;10.73;;;;;;;8.30;80.85;92797.69;5090373;28;20215;-71
2022/09/19 06:24:48;;;;;;;12.23;11.57;;;;;;;8.40;81.20;92800.31;5107451;28;20289;-69
2022/09/19 06:27:14;;;;;;;13.17;11.80;;;;;;;8.31;81.29;92800.06;5104731;28;20209;-71
2022/09/19 06:29:39;;;;;;;11.57;10.97;;;;;;;8.52;79.32;92787.81;5099378;28;20227;-71
2022/09/19 06:32:05;;;;;;;11.83;11.00;;;;;;;8.67;79.65;92798.25;5089029;28;20209;-71
2022/09/19 06:34:30;;;;;;;11.80;11.20;;;;;;;8.68;78.33;92810.19;5088700;28;20224;-70
2022/09/19 06:36:56;;;;;;;11.53;10.90;;;;;;;8.64;79.83;92809.16;5100545;28;20193;-70
2022/09/19 06:39:21;;;;;;;11.90;11.17;;;;;;;9.15;76.81;92792.41;5089727;28;20227;-70
2022/09/19 06:41:47;;;;;;;11.17;10.37;;;;;;;9.28;75.70;92812.69;5055786;28;20229;-70
2022/09/19 06:44:13;;;;;;;11.37;10.60;;;;;;;9.25;76.31;92808.78;5074550;28;20228;-70
2022/09/19 06:46:39;;;;;;;12.03;11.17;;;;;;;9.17;77.63;92778.06;5087036;28;20188;-70
2022/09/19 06:49:07;;;;;;;11.77;11.17;;;;;;;9.45;74.79;92794.91;5088536;28;20250;-71
2022/09/19 06:51:33;;;;;;;12.33;11.03;;;;;;;9.72;73.13;92808.34;5089397;28;20184;-72
2022/09/19 06:53:58;;;;;;;10.97;10.13;;;;;;;9.66;73.79;92791.19;5089262;28;20231;-70
2022/09/19 06:56:24;;;;;;;10.93;9.93;;;;;;;9.67;75.76;92810.97;5089430;28;20193;-71
2022/09/19 06:58:49;;;;;;;10.37;9.87;;;;;;;9.76;75.70;92811.97;5088985;28;20212;-70
2022/09/19 07:01:15;;;;;;;11.07;10.37;;;;;;;10.04;74.47;92821.75;5088836;28;20187;-71
2022/09/19 07:03:41;;;;;;;10.53;9.93;;;;;;;10.12;71.85;92810.78;5078637;28;20205;-71
2022/09/19 07:06:07;;;;;;;10.17;9.57;;;;;;;10.32;72.19;92810.63;5087732;28;20693;-70
2022/09/19 07:08:32;;;;;;;10.53;10.03;;;;;;;10.48;71.50;92809.50;5094052;28;20180;-70
2022/09/19 07:10:58;;;;;;;10.70;10.17;;;;;;;10.59;69.65;92797.91;5092676;28;20224;-71
2022/09/19 07:13:24;;;;;;;11.17;9.93;;;;;;;10.63;70.19;92796.31;5089941;28;20193;-71
2022/09/19 07:15:49;;;;;;;11.97;9.27;;;;;;;10.70;69.10;92796.00;5091573;28;20243;-71
2022/09/19 07:18:14;;;;;;;10.60;10.10;;;;;;;11.14;67.43;92792.19;5082118;28;20173;-70
2022/09/19 07:20:41;;;;;;;9.77;9.27;;;;;;;11.06;66.59;92769.28;5089349;28;20216;-78
2022/09/19 07:23:13;;;;;;;9.73;9.23;;;;;;;11.17;67.20;92793.47;5093516;28;20232;-71
2022/09/19 07:25:39;;;;;;;9.20;8.60;;;;;;;11.18;67.03;92779.34;5087547;28;20240;-73
2022/09/19 07:28:08;;;;;;;10.47;9.77;;;;;;;11.26;66.93;92789.97;5082516;28;20187;-74
2022/09/19 07:30:35;;;;;;;9.40;9.00;;;;;;;11.42;65.02;92774.91;5079401;28;20224;-72
2022/09/19 07:33:03;;;;;;;9.10;8.60;;;;;;;11.56;65.24;92788.06;5077246;28;20186;-72
2022/09/19 07:35:34;;;;;;;9.77;9.17;;;;;;;11.72;64.43;92797.34;5084188;28;20233;-73
2022/09/19 07:37:59;;;;;;;10.70;8.80;;;;;;;11.52;66.34;92792.31;5076452;28;20185;-74
2022/09/19 07:40:25;;;;;;;9.77;9.23;;;;;;;11.72;64.92;92797.34;5079064;28;20235;-72
2022/09/19 07:42:51;;;;;;;11.20;10.70;;;;;;;11.67;66.13;92794.78;5087086;28;20228;-72
2022/09/19 07:45:17;;;;;;;9.27;8.87;;;;;;;11.89;64.00;92785.31;5077007;28;20315;-73
2022/09/19 07:47:47;;;;;;;9.17;8.77;;;;;;;11.93;62.11;92782.94;5077660;28;20220;-72
2022/09/19 07:50:16;;;;;;;9.77;9.27;;;;;;;11.80;62.37;92791.50;5083686;28;20250;-72
2022/09/19 07:52:43;;;;;;;8.90;8.40;;;;;;;12.06;63.22;92792.72;5080747;28;20192;-74
2022/09/19 07:55:10;;;;;;;10.73;10.00;;;;;;;11.97;63.22;92769.00;5083177;28;20256;-75
2022/09/19 07:57:36;;;;;;;10.40;9.50;;;;;;;12.15;63.01;92785.78;5083525;28;20194;-73
2022/09/19 08:00:03;;;;;;;9.63;9.10;;;;;;;12.07;61.92;92773.31;5090984;28;20222;-73
2022/09/19 08:02:28;;;;;;;9.87;9.27;;;;;;;12.09;62.08;92789.53;5081863;28;20223;-73
2022/09/19 08:04:53;;;;;;;9.27;8.77;;;;;;;12.29;62.77;92787.41;5088852;28;20236;-71
2022/09/19 08:07:19;;;;;;;9.77;9.17;;;;;;;12.18;63.49;92777.34;5091485;28;20197;-73
2022/09/19 08:09:44;;;;;;;10.47;9.87;;;;;;;12.29;63.39;92774.31;5091629;28;20233;-73
2022/09/19 08:12:11;;;;;;;10.37;9.83;;;;;;;12.45;63.78;92780.84;5091200;28;20280;-74
2022/09/19 08:14:37;;;;;;;9.70;9.20;;;;;;;12.54;61.70;92773.94;5088915;28;20221;-76
2022/09/19 08:17:03;;;;;;;9.63;8.93;;;;;;;12.32;64.70;92768.50;5091071;28;20180;-74
2022/09/19 08:19:28;;;;;;;10.33;9.83;;;;;;;12.12;64.57;92770.63;5088714;28;20228;-74
2022/09/19 08:21:53;;;;;;;10.00;9.47;;;;;;;11.86;63.95;92757.09;5087240;28;20305;-74
2022/09/19 08:24:19;;;;;;;10.20;9.70;;;;;;;12.39;63.50;92765.53;5087744;28;20282;-77
2022/09/19 08:26:45;;;;;;;10.27;9.67;;;;;;;12.87;62.96;92761.59;5085042;28;20168;-73
2022/09/19 08:29:10;;;;;;;9.97;9.30;;;;;;;12.58;62.56;92763.66;5087519;28;20240;-74
2022/09/19 08:31:36;;;;;;;9.27;8.87;;;;;;;12.67;60.74;92770.56;5082412;28;20196;-74
2022/09/19 08:34:02;;;;;;;10.03;9.43;;;;;;;12.76;59.80;92773.31;5083286;28;20265;-74
2022/09/19 08:36:28;;;;;;;10.60;9.93;;;;;;;13.03;58.55;92776.00;5085125;28;20185;-74
2022/09/19 08:38:53;;;;;;;10.13;9.43;;;;;;;12.78;59.99;92755.44;5086292;28;20192;-74
2022/09/19 08:41:43;;;;;;;9.57;9.03;;;;;;;12.95;59.40;92774.81;5080742;28;20185;-74
2022/09/19 08:44:21;;;;;;;9.90;9.40;;;;;;;13.13;57.63;92775.06;5083973;28;20252;-74
2022/09/19 08:46:49;;;;;;;10.00;9.37;;;;;;;12.92;59.42;92764.91;5090784;28;20193;-75
2022/09/19 08:49:33;;;;;;;11.63;10.73;;;;;;;12.88;57.97;92760.53;5089170;28;20229;-74
2022/09/19 08:52:05;;;;;;;8.97;8.57;;;;;;;13.00;58.79;92755.63;5089598;28;20196;-74
2022/09/19 08:54:47;;;;;;;10.10;9.47;;;;;;;13.11;57.47;92762.25;5089539;28;20232;-72
2022/09/19 08:57:27;;;;;;;10.77;10.07;;;;;;;13.09;56.47;92763.63;5084534;28;20675;-74
2022/09/19 09:00:02;;;;;;;9.50;8.77;;;;;;;13.19;56.65;92761.59;5089634;28;20288;-74
2022/09/19 09:02:49;;;;;;;10.57;9.93;;;;;;;13.49;55.83;92768.88;5090374;28;20212;-74
2022/09/19 09:05:20;;;;;;;10.03;9.43;;;;;;;13.87;55.31;92761.53;5089371;28;20224;-74
2022/09/19 09:07:52;;;;;;;10.73;10.00;;;;;;;13.75;54.25;92767.31;5089810;28;20184;-74
2022/09/19 09:10:45;;;;;;;9.90;9.37;;;;;;;13.44;53.78;92766.34;5071793;28;20266;-74
2022/09/19 09:13:44;;;;;;;10.43;9.77;;;;;;;13.66;53.93;92763.81;5089005;28;20224;-73
2022/09/19 09:16:32;;;;;;;10.50;9.73;;;;;;;13.57;53.88;92770.03;5089281;28;20299;-73
2022/09/19 09:19:07;;;;;;;9.80;9.27;;;;;;;13.97;50.41;92777.09;5089069;28;20738;-71
2022/09/19 09:21:48;;;;;;;8.97;8.57;;;;;;;14.14;47.44;92770.16;5087509;28;20192;-71
2022/09/19 09:24:26;;;;;;;9.90;9.37;;;;;;;13.86;48.88;92752.91;5088944;28;20239;-71
2022/09/19 09:26:56;;;;;;;9.87;9.17;;;;;;;13.82;51.64;92748.56;5088582;28;20207;-71
2022/09/19 09:29:30;;;;;;;9.90;9.30;;;;;;;13.73;50.16;92748.44;5087267;28;20212;-71
2022/09/19 09:32:30;;;;;;;10.73;9.83;;;;;;;13.88;49.68;92750.75;5090032;28;20188;-72
2022/09/19 09:35:06;;;;;;;9.57;9.07;;;;;;;13.94;48.53;92722.56;5075210;28;20282;-72
2022/09/19 09:37:40;;;;;;;9.30;9.00;;;;;;;14.00;48.33;92737.13;5090008;28;20185;-72
2022/09/19 09:43:09;;;;;;;9.83;9.33;;;;;;;14.62;47.64;92717.06;5058098;28;20227;-71
2022/09/19 09:45:41;;;;;;;9.33;8.77;;;;;;;14.21;48.29;92707.50;5087864;28;20231;-72
2022/09/19 09:48:16;;;;;;;9.43;8.93;;;;;;;14.61;46.85;92710.28;5087990;28;20214;-71
2022/09/19 09:50:48;;;;;;;9.63;9.03;;;;;;;14.77;48.32;92714.09;5087069;28;20232;-71
2022/09/19 09:53:44;;;;;;;9.60;9.03;;;;;;;14.78;47.66;92723.50;5089300;28;20193;-71
2022/09/19 09:56:44;;;;;;;10.73;9.93;;;;;;;14.62;48.13;92717.06;5095595;28;20207;-71
2022/09/19 10:05:33;;;;;;;10.00;9.40;;;;;;;14.92;47.43;92718.94;5082950;28;20302;-70
2022/09/19 10:08:28;;;;;;;10.47;9.50;;;;;;;14.79;49.13;92712.69;5091500;28;20757;-71
2022/09/19 10:11:17;;;;;;;10.07;9.23;;;;;;;14.99;47.69;92706.91;5084659;28;20217;-71
2022/09/19 10:13:58;;;;;;;10.10;9.47;;;;;;;15.10;47.19;92702.16;5084315;28;20211;-71
2022/09/19 10:16:23;;;;;;;10.93;10.00;;;;;;;15.14;46.12;92705.75;5082499;28;20177;-71
2022/09/19 10:18:57;;;;;;;9.90;9.30;;;;;;;14.44;48.25;92703.81;5082131;28;20196;-71
2022/09/19 10:21:22;;;;;;;11.33;10.67;;;;;;;14.85;47.85;92687.06;5091754;28;20186;-71
2022/09/19 10:23:48;;;;;;;9.67;8.90;;;;;;;15.26;47.90;92696.22;5084211;28;20221;-71
2022/09/19 10:26:19;;;;;;;9.90;9.27;;;;;;;15.45;46.05;92698.63;5086766;28;20197;-72
2022/09/19 10:28:52;;;;;;;9.07;8.57;;;;;;;15.08;48.15;92699.09;5082749;28;20278;-72
2022/09/19 10:31:23;;;;;;;9.27;8.77;;;;;;;15.49;47.22;92696.91;5083192;28;20177;-71
2022/09/19 10:33:50;;;;;;;9.33;8.93;;;;;;;15.39;46.59;92700.59;5088205;28;20220;-71
2022/09/19 10:36:21;;;;;;;9.87;9.23;;;;;;;15.55;45.13;92690.44;5088594;28;20211;-73
2022/09/19 10:38:58;;;;;;;9.50;9.00;;;;;;;15.34;45.41;92690.22;5090407;28;20211;-71
2022/09/19 10:41:27;;;;;;;9.90;9.33;;;;;;;15.09;46.32;92682.22;5082240;28;20238;-72
2022/09/19 10:43:56;;;;;;;9.23;8.70;;;;;;;15.42;44.54;92678.97;5090069;28;20228;-71
2022/09/19 10:46:35;;;;;;;9.90;9.20;;;;;;;15.30;44.42;92664.81;5088704;28;20188;-71
2022/09/19 10:49:05;;;;;;;8.90;8.30;;;;;;;15.26;46.26;92669.91;5091707;28;20246;-70
2022/09/19 10:51:45;;;;;;;9.47;8.97;;;;;;;15.75;43.67;92656.41;5088078;28;20195;-71
2022/09/19 10:54:21;;;;;;;9.67;9.03;;;;;;;15.54;44.31;92638.91;5089642;28;20289;-70
2022/09/19 10:56:46;;;;;;;8.67;8.13;;;;;;;15.65;43.81;92643.56;5088792;28;20195;-71
2022/09/19 10:59:12;;;;;;;8.90;8.20;;;;;;;15.49;45.33;92654.81;5089724;28;20224;-72
2022/09/19 11:01:38;;;;;;;8.67;8.20;;;;;;;15.34;44.24;92645.50;5087515;28;20203;-72
2022/09/19 11:04:11;;;;;;;8.50;8.13;;;;;;;15.80;43.94;92647.59;5088568;28;20300;-72
2022/09/19 11:06:56;;;;;;;9.13;8.43;;;;;;;15.99;43.30;92643.59;5097693;28;20189;-71
2022/09/19 11:09:27;;;;;;;9.37;8.83;;;;;;;16.03;43.48;92633.97;5084747;28;20232;-72
2022/09/19 11:12:02;;;;;;;8.93;8.47;;;;;;;16.22;41.48;92635.53;5093118;28;20223;-71
2022/09/19 11:14:39;;;;;;;9.73;9.13;;;;;;;16.15;41.47;92633.34;5081926;28;20297;-72
2022/09/19 11:17:42;;;;;;;8.63;8.23;;;;;;;16.02;43.92;92624.53;5084956;28;20192;-72
2022/09/19 11:20:29;;;;;;;21.27;11.50;;;;;;;16.04;43.39;92624.22;5089232;28;20224;-72
2022/09/19 11:23:03;;;;;;;9.30;8.80;;;;;;;16.26;40.65;92623.25;5090382;28;20240;-71
2022/09/19 11:25:47;;;;;;;8.23;7.83;;;;;;;16.20;41.46;92625.28;5083735;28;20255;-72
2022/09/19 11:28:18;;;;;;;9.20;8.80;;;;;;;16.13;41.35;92626.81;5087186;28;20192;-72
2022/09/19 11:30:47;;;;;;;8.50;8.00;;;;;;;16.49;39.81;92609.59;5091465;28;20232;-72
2022/09/19 11:33:45;;;;;;;9.23;8.73;;;;;;;16.62;40.01;92615.78;5088318;28;20216;-71
2022/09/19 11:36:35;;;;;;;9.13;8.63;;;;;;;16.49;39.18;92617.50;5088284;28;20193;-73
2022/09/19 11:39:38;;;;;;;8.60;8.07;;;;;;;16.44;39.31;92619.50;5076354;28;20258;-72
2022/09/19 11:42:04;;;;;;;8.77;8.27;;;;;;;16.40;40.87;92606.19;5088192;28;20219;-72
2022/09/19 11:45:04;;;;;;;8.77;8.30;;;;;;;16.65;39.72;92594.84;5090698;28;20263;-72
2022/09/19 11:47:50;;;;;;;8.67;8.20;;;;;;;16.94;38.01;92594.88;5084753;28;20194;-72
2022/09/19 11:50:39;;;;;;;9.27;8.77;;;;;;;16.88;39.24;92598.78;5085388;28;20229;-72
2022/09/19 11:53:29;;;;;;;7.77;7.27;;;;;;;16.54;38.93;92595.50;5104397;28;20191;-73
2022/09/19 11:56:36;;;;;;;8.40;8.00;;;;;;;16.64;39.96;92590.63;5078255;28;20237;-71
2022/09/19 11:59:24;;;;;;;9.10;8.70;;;;;;;16.87;39.38;92601.75;5090592;28;20236;-73
2022/09/19 12:02:09;;;;;;;8.40;7.90;;;;;;;17.09;39.52;92604.13;5093501;28;20185;-73
2022/09/19 12:04:42;;;;;;;8.93;8.50;;;;;;;17.21;39.38;92599.69;5088443;28;20304;-72
2022/09/19 12:07:41;;;;;;;9.80;8.13;;;;;;;17.25;39.63;92600.63;5096466;28;20212;-72
2022/09/19 12:10:43;;;;;;;8.20;7.70;;;;;;;17.05;39.22;92595.28;5091508;28;20212;-73
2022/09/19 12:13:14;;;;;;;9.53;8.70;;;;;;;17.17;38.16;92590.88;5083056;28;20263;-73
2022/09/19 12:15:46;;;;;;;8.43;7.77;;;;;;;17.25;38.70;92576.88;5076111;28;20242;-73